createdAt,value
2018-11-03T00:00:16.837Z,5.40
2018-11-03T00:02:47.237Z,5.44
2018-11-03T00:05:17.009Z,5.46
2018-11-03T00:07:46.668Z,5.44
2018-11-03T00:10:16.009Z,5.35
2018-11-03T00:12:45.193Z,5.35
2018-11-03T00:15:14.849Z,5.31
2018-11-03T00:17:44.011Z,5.25
2018-11-03T00:20:13.145Z,5.14
2018-11-03T00:22:42.329Z,5.10
2018-11-03T00:25:11.874Z,5.09
2018-11-03T00:27:41.021Z,4.97
2018-11-03T00:30:12.208Z,4.88
2018-11-03T00:32:41.771Z,4.73
2018-11-03T00:35:12.037Z,4.80
2018-11-03T00:37:41.189Z,4.81
2018-11-03T00:40:13.628Z,4.79
2018-11-03T00:42:43.597Z,4.83
2018-11-03T00:45:14.357Z,4.78
2018-11-03T00:47:44.488Z,4.65
2018-11-03T00:50:14.830Z,4.63
2018-11-03T00:52:44.801Z,4.57
2018-11-03T00:55:14.353Z,4.65
2018-11-03T00:57:43.822Z,4.57
2018-11-03T01:00:15.835Z,4.52
2018-11-03T01:02:47.776Z,4.51
2018-11-03T01:05:16.935Z,4.43
2018-11-03T01:07:46.856Z,4.49
2018-11-03T01:10:17.086Z,4.48
2018-11-03T01:12:46.176Z,4.44
2018-11-03T01:15:16.641Z,4.42
2018-11-03T01:17:45.981Z,4.39
2018-11-03T01:20:18.180Z,4.39
2018-11-03T01:22:47.300Z,4.35
2018-11-03T01:25:16.492Z,4.34
2018-11-03T01:27:45.706Z,4.08
2018-11-03T01:30:16.129Z,3.98
2018-11-03T01:32:45.285Z,3.94
2018-11-03T01:35:14.851Z,3.96
2018-11-03T01:37:43.996Z,3.96
2018-11-03T01:40:14.061Z,3.82
2018-11-03T01:42:43.825Z,3.92
2018-11-03T01:45:12.993Z,3.98
2018-11-03T01:47:42.112Z,3.85
2018-11-03T01:50:13.133Z,3.75
2018-11-03T01:52:42.724Z,3.77
2018-11-03T01:55:11.937Z,3.68
2018-11-03T01:57:41.985Z,3.71
2018-11-03T02:00:11.900Z,3.67
2018-11-03T02:02:42.043Z,3.69
2018-11-03T02:05:11.521Z,3.64
2018-11-03T02:07:41.288Z,3.37
2018-11-03T02:10:11.833Z,3.13
2018-11-03T02:12:41.644Z,3.28
2018-11-03T02:15:11.156Z,3.36
2018-11-03T02:17:40.993Z,3.42
2018-11-03T02:20:11.380Z,3.44
2018-11-03T02:22:40.888Z,3.17
2018-11-03T02:25:10.793Z,3.28
2018-11-03T02:27:41.810Z,3.36
2018-11-03T02:30:11.939Z,3.32
2018-11-03T02:32:41.675Z,3.35
2018-11-03T02:35:11.725Z,3.30
2018-11-03T02:37:41.521Z,3.31
2018-11-03T02:40:12.273Z,3.30
2018-11-03T02:42:42.576Z,3.31
2018-11-03T02:45:12.035Z,3.32
2018-11-03T02:47:41.725Z,3.21
2018-11-03T02:50:13.325Z,3.26
2018-11-03T02:52:42.820Z,3.23
2018-11-03T02:55:11.925Z,3.16
2018-11-03T02:57:41.141Z,3.19
2018-11-03T03:00:11.277Z,3.20
2018-11-03T03:02:40.508Z,3.23
2018-11-03T03:05:10.881Z,3.13
2018-11-03T03:07:40.292Z,3.06
2018-11-03T03:10:11.774Z,3.01
2018-11-03T03:12:41.236Z,2.98
2018-11-03T03:15:12.581Z,2.98
2018-11-03T03:17:42.284Z,2.97
2018-11-03T03:20:13.385Z,2.93
2018-11-03T03:22:42.937Z,2.91
2018-11-03T03:25:12.668Z,2.86
2018-11-03T03:27:41.785Z,2.88
2018-11-03T03:30:11.579Z,2.88
2018-11-03T03:32:41.051Z,2.86
2018-11-03T03:35:10.209Z,2.84
2018-11-03T03:37:39.344Z,2.80
2018-11-03T03:40:09.659Z,2.66
2018-11-03T03:42:38.890Z,2.53
2018-11-03T03:45:09.069Z,2.58
2018-11-03T03:47:38.224Z,2.74
2018-11-03T03:50:09.040Z,2.74
2018-11-03T03:52:38.876Z,2.61
2018-11-03T03:55:08.426Z,2.71
2018-11-03T03:57:37.966Z,2.69
2018-11-03T04:00:09.806Z,2.75
2018-11-03T04:02:39.147Z,2.78
2018-11-03T04:05:08.441Z,2.83
2018-11-03T04:07:37.940Z,2.99
2018-11-03T04:10:08.757Z,3.02
2018-11-03T04:12:37.876Z,3.04
2018-11-03T04:15:07.210Z,3.03
2018-11-03T04:17:36.385Z,3.05
2018-11-03T04:20:06.823Z,3.08
2018-11-03T04:22:35.950Z,3.10
2018-11-03T04:25:05.380Z,3.08
2018-11-03T04:27:34.972Z,2.99
2018-11-03T04:30:06.333Z,3.00
2018-11-03T04:32:35.460Z,3.02
2018-11-03T04:35:04.718Z,3.02
2018-11-03T04:37:34.016Z,2.99
2018-11-03T04:40:03.169Z,2.81
2018-11-03T04:42:32.285Z,2.91
2018-11-03T04:45:01.450Z,3.02
2018-11-03T04:47:30.601Z,3.03
2018-11-03T04:49:59.742Z,3.01
2018-11-03T04:52:28.844Z,3.02
2018-11-03T04:54:58.702Z,2.94
2018-11-03T04:57:28.465Z,3.01
2018-11-03T04:59:57.828Z,3.06
2018-11-03T05:02:27.018Z,3.02
2018-11-03T05:04:56.217Z,3.05
2018-11-03T05:07:26.412Z,3.09
2018-11-03T05:09:55.627Z,3.02
2018-11-03T05:12:24.696Z,2.91
2018-11-03T05:14:54.083Z,2.96
2018-11-03T05:17:23.345Z,2.96
2018-11-03T05:19:52.574Z,2.94
2018-11-03T05:22:22.149Z,2.99
2018-11-03T05:24:51.701Z,3.03
2018-11-03T05:27:20.889Z,3.02
2018-11-03T05:29:50.081Z,3.07
2018-11-03T05:32:19.176Z,3.10
2018-11-03T05:34:48.321Z,3.05
2018-11-03T05:37:18.448Z,3.09
2018-11-03T05:39:47.569Z,3.12
2018-11-03T05:42:16.741Z,3.10
2018-11-03T05:44:46.396Z,3.14
2018-11-03T05:47:15.554Z,3.11
2018-11-03T05:49:45.629Z,3.06
2018-11-03T05:52:15.132Z,3.08
2018-11-03T05:54:44.218Z,3.07
2018-11-03T05:57:13.328Z,3.16
2018-11-03T05:59:42.734Z,3.19
2018-11-03T06:02:11.897Z,3.23
2018-11-03T06:04:41.080Z,3.23
2018-11-03T06:07:10.257Z,3.08
2018-11-03T06:09:40.485Z,3.06
2018-11-03T06:12:09.632Z,3.21
2018-11-03T06:14:38.820Z,3.27
2018-11-03T06:17:07.969Z,3.31
2018-11-03T06:19:37.637Z,3.30
2018-11-03T06:22:07.541Z,3.30
2018-11-03T06:24:36.961Z,3.35
2018-11-03T06:27:06.620Z,3.34
2018-11-03T06:29:35.773Z,3.34
2018-11-03T06:32:05.412Z,3.35
2018-11-03T06:34:34.553Z,3.39
2018-11-03T06:37:04.264Z,3.42
2018-11-03T06:39:33.416Z,3.46
2018-11-03T06:42:02.837Z,3.37
2018-11-03T06:44:32.001Z,3.49
2018-11-03T06:47:01.261Z,3.66
2018-11-03T06:49:30.417Z,3.73
2018-11-03T06:51:59.960Z,3.82
2018-11-03T06:54:29.060Z,3.90
2018-11-03T06:56:58.124Z,4.18
2018-11-03T06:59:27.657Z,4.84
2018-11-03T07:01:56.805Z,5.34
2018-11-03T07:04:26.162Z,6.00
2018-11-03T07:06:55.349Z,6.57
2018-11-03T07:09:24.505Z,6.99
2018-11-03T07:11:54.298Z,7.25
2018-11-03T07:14:23.421Z,7.00
2018-11-03T07:16:52.765Z,6.79
2018-11-03T07:19:21.875Z,6.74
2018-11-03T07:21:51.712Z,7.37
2018-11-03T07:24:20.817Z,8.80
2018-11-03T07:26:49.956Z,10.13
2018-11-03T07:29:19.632Z,11.63
2018-11-03T07:31:48.913Z,13.29
2018-11-03T07:34:18.619Z,14.41
2018-11-03T07:36:47.784Z,14.57
2018-11-03T07:39:16.961Z,15.08
2018-11-03T07:41:46.092Z,16.16
2018-11-03T07:44:15.322Z,17.25
2018-11-03T07:46:45.557Z,18.15
2018-11-03T07:49:17.547Z,18.95
2018-11-03T07:51:47.901Z,19.49
2018-11-03T07:54:17.429Z,20.06
2018-11-03T07:56:46.589Z,20.82
2018-11-03T07:59:15.793Z,21.44
2018-11-03T08:01:44.974Z,21.76
2018-11-03T08:04:14.132Z,21.61
2018-11-03T08:06:43.265Z,22.00
2018-11-03T08:09:12.449Z,22.31
2018-11-03T08:11:41.504Z,22.64
2018-11-03T08:14:10.698Z,22.96
2018-11-03T08:16:39.909Z,23.83
2018-11-03T08:19:09.200Z,24.30
2018-11-03T08:21:38.365Z,24.70
2018-11-03T08:24:07.537Z,25.11
2018-11-03T08:26:36.625Z,24.97
2018-11-03T08:29:06.052Z,25.45
2018-11-03T08:31:35.327Z,25.15
2018-11-03T08:34:05.168Z,24.66
2018-11-03T08:36:34.281Z,23.57
2018-11-03T08:39:03.497Z,22.18
2018-11-03T08:41:33.248Z,24.32
2018-11-03T08:44:02.337Z,23.17
2018-11-03T08:46:31.523Z,24.93
2018-11-03T08:49:01.464Z,26.20
2018-11-03T08:51:30.672Z,27.09
2018-11-03T08:53:59.757Z,27.63
2018-11-03T08:56:29.354Z,25.35
2018-11-03T08:58:58.538Z,22.73
2018-11-03T09:01:27.710Z,24.86
2018-11-03T09:03:57.021Z,25.74
2018-11-03T09:06:26.707Z,25.40
2018-11-03T09:08:55.868Z,22.71
2018-11-03T09:11:25.123Z,21.89
2018-11-03T09:13:54.273Z,22.65
2018-11-03T09:16:23.481Z,23.10
2018-11-03T09:18:52.621Z,21.08
2018-11-03T09:21:21.728Z,22.85
2018-11-03T09:23:50.913Z,23.71
2018-11-03T09:26:20.636Z,21.04
2018-11-03T09:28:49.793Z,21.95
2018-11-03T09:31:18.924Z,21.30
2018-11-03T09:33:48.079Z,22.20
2018-11-03T09:36:17.253Z,23.40
2018-11-03T09:38:46.467Z,18.92
2018-11-03T09:41:15.644Z,17.45
2018-11-03T09:43:44.761Z,17.25
2018-11-03T09:46:13.982Z,15.40
2018-11-03T09:48:43.353Z,17.13
2018-11-03T09:51:12.658Z,15.93
2018-11-03T09:53:41.697Z,16.55
2018-11-03T09:56:11.213Z,20.13
2018-11-03T09:58:40.341Z,16.67
2018-11-03T10:01:09.465Z,17.68
2018-11-03T10:03:38.649Z,19.26
2018-11-03T10:06:07.880Z,21.69
2018-11-03T10:08:37.057Z,21.25
2018-11-03T10:11:06.449Z,18.10
2018-11-03T10:13:35.707Z,17.41
2018-11-03T10:16:05.262Z,19.04
2018-11-03T10:18:34.361Z,17.93
2018-11-03T10:21:03.488Z,18.53
2018-11-03T10:23:32.619Z,16.09
2018-11-03T10:26:01.929Z,16.01
2018-11-03T10:28:31.271Z,18.32
2018-11-03T10:31:00.741Z,20.04
2018-11-03T10:33:29.988Z,15.94
2018-11-03T10:35:59.129Z,17.68
2018-11-03T10:38:28.241Z,18.88
2018-11-03T10:40:57.322Z,17.44
2018-11-03T10:43:26.429Z,17.04
2018-11-03T10:45:55.564Z,16.71
2018-11-03T10:48:24.732Z,15.17
2018-11-03T10:50:53.907Z,16.48
2018-11-03T10:53:23.012Z,17.59
2018-11-03T10:55:52.177Z,19.73
2018-11-03T10:58:21.385Z,20.00
2018-11-03T11:00:56.026Z,20.64
2018-11-03T11:03:30.688Z,19.41
2018-11-03T11:06:04.973Z,18.74
2018-11-03T11:08:39.349Z,20.35
2018-11-03T11:11:13.805Z,18.69
2018-11-03T11:13:43.309Z,19.48
2018-11-03T11:16:12.456Z,17.64
2018-11-03T11:18:41.796Z,16.34
2018-11-03T11:21:10.949Z,15.36
2018-11-03T11:23:40.463Z,15.14
2018-11-03T11:26:09.501Z,15.82
2018-11-03T11:28:38.628Z,17.54
2018-11-03T11:31:07.777Z,16.24
2018-11-03T11:33:36.893Z,15.63
2018-11-03T11:36:06.340Z,16.66
2018-11-03T11:38:35.534Z,17.45
2018-11-03T11:41:04.989Z,18.07
2018-11-03T11:43:34.137Z,18.58
2018-11-03T11:46:03.256Z,18.43
2018-11-03T11:48:32.376Z,17.83
2018-11-03T11:51:01.537Z,17.80
2018-11-03T11:53:30.692Z,17.38
2018-11-03T11:55:59.753Z,17.97
2018-11-03T11:58:28.885Z,18.38
2018-11-03T12:00:58.257Z,18.38
2018-11-03T12:03:27.425Z,17.03
2018-11-03T12:05:57.556Z,18.73
2018-11-03T12:08:26.775Z,17.46
2018-11-03T12:10:55.885Z,16.76
2018-11-03T12:13:25.904Z,15.15
2018-11-03T12:15:55.076Z,15.25
2018-11-03T12:18:24.253Z,14.87
2018-11-03T12:20:53.957Z,16.28
2018-11-03T12:23:23.121Z,15.93
2018-11-03T12:25:53.352Z,18.06
2018-11-03T12:28:22.485Z,17.39
2018-11-03T12:30:51.891Z,16.81
2018-11-03T12:33:20.984Z,18.14
2018-11-03T12:35:50.221Z,16.74
2018-11-03T12:38:19.420Z,17.74
2018-11-03T12:40:48.736Z,15.64
2018-11-03T12:43:17.811Z,17.52
2018-11-03T12:45:46.952Z,18.32
2018-11-03T12:48:16.102Z,18.80
2018-11-03T12:50:45.265Z,18.81
2018-11-03T12:53:14.401Z,19.76
2018-11-03T12:55:43.608Z,20.73
2018-11-03T12:58:12.793Z,20.33
2018-11-03T13:00:41.944Z,20.12
2018-11-03T13:03:11.101Z,21.14
2018-11-03T13:05:40.797Z,20.26
2018-11-03T13:08:09.973Z,20.52
2018-11-03T13:10:39.069Z,18.40
2018-11-03T13:13:08.285Z,17.73
2018-11-03T13:15:37.464Z,17.13
2018-11-03T13:18:06.556Z,16.94
2018-11-03T13:20:35.665Z,18.14
2018-11-03T13:23:05.165Z,16.51
2018-11-03T13:25:34.269Z,16.05
2018-11-03T13:28:03.438Z,15.54
2018-11-03T13:30:32.533Z,15.51
2018-11-03T13:33:01.657Z,15.66
2018-11-03T13:35:30.737Z,15.43
2018-11-03T13:38:00.028Z,13.66
2018-11-03T13:40:29.612Z,13.95
2018-11-03T13:42:58.761Z,13.85
2018-11-03T13:45:27.904Z,14.32
2018-11-03T13:47:57.101Z,14.88
2018-11-03T13:50:26.646Z,15.21
2018-11-03T13:52:56.169Z,14.77
2018-11-03T13:55:25.332Z,14.33
2018-11-03T13:57:54.489Z,13.55
2018-11-03T14:00:23.685Z,12.94
2018-11-03T14:02:52.885Z,13.10
2018-11-03T14:05:22.033Z,12.96
2018-11-03T14:07:51.260Z,13.02
2018-11-03T14:10:20.348Z,12.75
2018-11-03T14:12:49.421Z,12.86
2018-11-03T14:15:18.931Z,13.12
2018-11-03T14:17:48.044Z,12.84
2018-11-03T14:20:18.016Z,12.79
2018-11-03T14:22:47.137Z,12.58
2018-11-03T14:25:17.631Z,12.87
2018-11-03T14:27:47.910Z,13.24
2018-11-03T14:30:17.310Z,12.92
2018-11-03T14:32:46.529Z,12.98
2018-11-03T14:35:16.244Z,13.26
2018-11-03T14:37:45.417Z,13.29
2018-11-03T14:40:15.944Z,12.84
2018-11-03T14:42:45.852Z,12.54
2018-11-03T14:45:16.116Z,12.63
2018-11-03T14:47:45.237Z,12.63
2018-11-03T14:50:14.353Z,12.55
2018-11-03T14:52:44.187Z,12.48
2018-11-03T14:55:13.801Z,12.30
2018-11-03T14:57:42.921Z,12.73
2018-11-03T15:00:15.534Z,12.76
2018-11-03T15:02:44.777Z,12.94
2018-11-03T15:05:14.208Z,12.34
2018-11-03T15:07:43.377Z,12.40
2018-11-03T15:10:13.497Z,12.49
2018-11-03T15:12:44.116Z,12.26
2018-11-03T15:15:15.189Z,12.08
2018-11-03T15:17:45.073Z,12.11
2018-11-03T15:20:14.174Z,11.88
2018-11-03T15:22:44.141Z,12.03
2018-11-03T15:25:13.446Z,11.93
2018-11-03T15:27:43.092Z,12.16
2018-11-03T15:30:13.520Z,11.89
2018-11-03T15:32:42.921Z,12.01
2018-11-03T15:35:12.888Z,12.18
2018-11-03T15:37:42.080Z,12.12
2018-11-03T15:40:13.853Z,12.09
2018-11-03T15:42:43.445Z,12.10
2018-11-03T15:45:15.008Z,12.08
2018-11-03T15:47:45.332Z,11.90
2018-11-03T15:50:15.196Z,11.95
2018-11-03T15:52:44.993Z,11.82
2018-11-03T15:55:15.025Z,11.64
2018-11-03T15:57:44.144Z,11.56
2018-11-03T16:00:16.229Z,11.38
2018-11-03T16:02:45.816Z,11.40
2018-11-03T16:05:15.249Z,11.35
2018-11-03T16:07:45.133Z,11.35
2018-11-03T16:10:14.296Z,11.24
2018-11-03T16:12:43.606Z,11.13
2018-11-03T16:15:13.704Z,11.12
2018-11-03T16:17:43.376Z,10.90
2018-11-03T16:20:13.577Z,10.85
2018-11-03T16:22:43.533Z,10.66
2018-11-03T16:25:13.093Z,10.44
2018-11-03T16:27:42.224Z,10.38
2018-11-03T16:30:15.830Z,10.25
2018-11-03T16:32:45.726Z,10.16
2018-11-03T16:35:14.886Z,10.04
2018-11-03T16:37:44.681Z,9.98
2018-11-03T16:40:15.281Z,9.83
2018-11-03T16:42:45.300Z,9.73
2018-11-03T16:45:16.517Z,9.60
2018-11-03T16:47:46.248Z,9.58
2018-11-03T16:50:16.416Z,9.56
2018-11-03T16:52:45.835Z,9.48
2018-11-03T16:55:15.844Z,9.40
2018-11-03T16:57:44.933Z,9.28
2018-11-03T17:00:15.385Z,9.31
2018-11-03T17:02:44.553Z,9.16
2018-11-03T17:05:14.988Z,9.09
2018-11-03T17:07:44.136Z,8.94
2018-11-03T17:10:15.032Z,9.03
2018-11-03T17:12:45.485Z,8.87
2018-11-03T17:15:14.953Z,8.82
2018-11-03T17:17:44.073Z,8.75
2018-11-03T17:20:13.236Z,8.63
2018-11-03T17:22:42.360Z,8.54
2018-11-03T17:25:12.677Z,8.48
2018-11-03T17:27:42.329Z,8.47
2018-11-03T17:30:13.968Z,8.38
2018-11-03T17:32:43.592Z,8.31
2018-11-03T17:35:13.609Z,8.27
2018-11-03T17:37:43.920Z,8.28
2018-11-03T17:40:13.305Z,8.22
2018-11-03T17:42:42.893Z,8.18
2018-11-03T17:45:12.649Z,8.05
2018-11-03T17:47:41.935Z,8.01
2018-11-03T17:50:13.041Z,8.00
2018-11-03T17:52:42.255Z,7.96
2018-11-03T17:55:11.529Z,7.93
2018-11-03T17:57:40.801Z,7.92
2018-11-03T18:00:13.224Z,7.85
2018-11-03T18:02:43.372Z,7.73
2018-11-03T18:05:12.895Z,7.77
2018-11-03T18:07:42.482Z,7.70
2018-11-03T18:10:12.744Z,7.69
2018-11-03T18:12:42.533Z,7.67
2018-11-03T18:15:12.009Z,7.68
2018-11-03T18:17:41.657Z,7.69
2018-11-03T18:20:11.184Z,7.58
2018-11-03T18:22:40.556Z,7.54
2018-11-03T18:25:10.316Z,7.47
2018-11-03T18:27:39.507Z,7.44
2018-11-03T18:30:11.095Z,7.44
2018-11-03T18:32:40.661Z,7.41
2018-11-03T18:35:09.989Z,7.42
2018-11-03T18:37:39.248Z,7.47
2018-11-03T18:40:09.188Z,7.35
2018-11-03T18:42:38.508Z,7.33
2018-11-03T18:45:08.388Z,7.34
2018-11-03T18:47:37.655Z,7.34
2018-11-03T18:50:12.597Z,7.29
2018-11-03T18:52:41.928Z,7.17
2018-11-03T18:55:11.905Z,7.14
2018-11-03T18:57:41.930Z,7.21
2018-11-03T19:00:11.933Z,7.33
2018-11-03T19:02:42.102Z,7.44
2018-11-03T19:05:11.156Z,7.47
2018-11-03T19:07:40.253Z,7.51
2018-11-03T19:10:10.045Z,7.58
2018-11-03T19:12:39.809Z,7.70
2018-11-03T19:15:10.756Z,7.76
2018-11-03T19:17:40.668Z,7.85
2018-11-03T19:20:13.412Z,7.91
2018-11-03T19:22:42.836Z,7.82
2018-11-03T19:25:13.205Z,7.80
2018-11-03T19:27:42.496Z,7.83
2018-11-03T19:30:12.760Z,7.94
2018-11-03T19:32:43.636Z,8.09
2018-11-03T19:35:12.754Z,8.19
2018-11-03T19:37:42.418Z,8.23
2018-11-03T19:40:12.883Z,8.29
2018-11-03T19:42:42.431Z,8.10
2018-11-03T19:45:12.433Z,7.99
2018-11-03T19:47:41.561Z,8.11
2018-11-03T19:50:11.064Z,8.19
2018-11-03T19:52:40.241Z,8.33
2018-11-03T19:55:09.365Z,8.36
2018-11-03T19:57:38.456Z,8.45
2018-11-03T20:00:12.669Z,8.49
2018-11-03T20:02:41.850Z,8.42
2018-11-03T20:05:11.749Z,8.46
2018-11-03T20:07:42.235Z,8.51
2018-11-03T20:10:11.554Z,8.43
2018-11-03T20:12:40.738Z,8.47
2018-11-03T20:15:11.217Z,8.49
2018-11-03T20:17:40.535Z,8.55
2018-11-03T20:20:11.288Z,8.60
2018-11-03T20:22:40.660Z,8.65
2018-11-03T20:25:11.046Z,8.63
2018-11-03T20:27:40.181Z,8.55
2018-11-03T20:30:13.617Z,8.60
2018-11-03T20:32:43.317Z,8.60
2018-11-03T20:35:12.479Z,8.67
2018-11-03T20:37:41.825Z,8.71
2018-11-03T20:40:12.397Z,8.74
2018-11-03T20:42:41.512Z,8.75
2018-11-03T20:45:11.157Z,8.71
2018-11-03T20:47:40.301Z,8.74
2018-11-03T20:50:12.689Z,8.76
2018-11-03T20:52:41.868Z,8.88
2018-11-03T20:55:11.923Z,8.91
2018-11-03T20:57:41.449Z,8.95
2018-11-03T21:00:17.273Z,8.98
2018-11-03T21:02:47.257Z,8.99
2018-11-03T21:05:16.389Z,8.97
2018-11-03T21:07:45.585Z,8.86
2018-11-03T21:10:14.733Z,8.93
2018-11-03T21:12:43.868Z,8.97
2018-11-03T21:15:13.001Z,9.02
2018-11-03T21:17:42.105Z,9.01
2018-11-03T21:20:11.290Z,9.05
2018-11-03T21:22:40.402Z,9.06
2018-11-03T21:25:09.608Z,9.01
2018-11-03T21:27:38.785Z,9.07
2018-11-03T21:30:10.015Z,9.05
2018-11-03T21:32:39.234Z,9.12
2018-11-03T21:35:08.405Z,9.03
2018-11-03T21:37:38.281Z,9.07
2018-11-03T21:40:08.361Z,8.94
2018-11-03T21:42:37.536Z,9.00
2018-11-03T21:45:07.933Z,9.00
2018-11-03T21:47:39.081Z,9.09
2018-11-03T21:50:08.658Z,9.16
2018-11-03T21:52:37.924Z,9.26
2018-11-03T21:55:07.740Z,9.29
2018-11-03T21:57:37.087Z,9.34
2018-11-03T22:00:08.817Z,9.35
2018-11-03T22:02:37.972Z,9.38
2018-11-03T22:05:09.268Z,9.27
2018-11-03T22:07:39.081Z,9.27
2018-11-03T22:10:08.621Z,9.31
2018-11-03T22:12:37.737Z,9.33
2018-11-03T22:15:07.593Z,9.26
2018-11-03T22:17:36.825Z,9.34
2018-11-03T22:20:06.832Z,9.33
2018-11-03T22:22:36.113Z,9.29
2018-11-03T22:25:06.201Z,9.31
2018-11-03T22:27:36.021Z,9.36
2018-11-03T22:30:05.549Z,9.42
2018-11-03T22:32:34.721Z,9.41
2018-11-03T22:35:03.964Z,9.46
2018-11-03T22:37:33.117Z,9.43
2018-11-03T22:40:02.403Z,9.44
2018-11-03T22:42:31.609Z,9.47
2018-11-03T22:45:00.735Z,9.29
2018-11-03T22:47:29.953Z,9.33
2018-11-03T22:49:59.097Z,9.39
2018-11-03T22:52:28.329Z,9.15
2018-11-03T22:54:58.228Z,9.23
2018-11-03T22:57:27.393Z,8.99
2018-11-03T22:59:56.475Z,8.76
2018-11-03T23:02:25.661Z,8.98
2018-11-03T23:04:55.001Z,9.03
2018-11-03T23:07:24.096Z,9.04
2018-11-03T23:09:53.213Z,9.22
2018-11-03T23:12:22.383Z,9.21
2018-11-03T23:14:51.600Z,8.83
2018-11-03T23:17:20.761Z,9.10
2018-11-03T23:19:49.941Z,9.27
2018-11-03T23:22:19.778Z,9.39
2018-11-03T23:24:48.977Z,9.27
2018-11-03T23:27:18.121Z,9.06
2018-11-03T23:29:47.323Z,8.97
2018-11-03T23:32:16.917Z,9.25
2018-11-03T23:34:45.993Z,9.12
2018-11-03T23:37:15.069Z,8.75
2018-11-03T23:39:44.204Z,8.84
2018-11-03T23:42:13.390Z,9.13
2018-11-03T23:44:42.480Z,8.99
2018-11-03T23:47:11.669Z,9.01
2018-11-03T23:49:40.852Z,8.89
2018-11-03T23:52:09.985Z,8.94
2018-11-03T23:54:39.126Z,8.98
2018-11-03T23:57:08.629Z,8.81
2018-11-03T23:59:37.820Z,8.83
